Amalga, Utah
Current Conditions -  °F | °C
As of 4:51 AM on Sunday 23 Nov 2014 (Local Time) from KLGU Reporting Station
Light Snow Light Snow  
Wind Chill: 25°   Ceiling: 3900
Heat Index: 34°   Visibility: 10mi
Dew Point: 25°   Wind: 14mph
Humidity: 70%   Direction: 320°NW
Pressure: 30.03"   Gusts: 21mph
Location:  41.8466°N, 111.898°W
Report Text: KLGU 231151Z AUTO 32012G18KT 10SM -SN OVC039 01/M04 A3003 RMK AO2 SNB1056E02B51 SLP176 P0000 60001 70045 T00111039 10022 20006 51027
Loading
Personal Weather Stations






























Interactive Weather Map New forecast layout! Learn more

10-Day Weather Forecast

Advertisements
Track Severe Weather on mobile